Time;durP1;ratioP1;P1;durP2;ratioP2;P2;SDS_P1;SDS_P2;PMS_P1;PMS_P2;Temp;Humidity;BMP_temperature;BMP_pressure;BME280_temperature;BME280_humidity;BME280_pressure;Samples;Min_cycle;Max_cycle;Signal;HPM_P1;HPM_P2
2023/07/29 00:27:43;;;;;;;17.30;14.83;;;17.00;99.90;;;;;;5868696;23;20174;-84
2023/07/29 01:07:44;;;;;;;26.07;21.23;;;16.70;99.90;;;;;;5985530;23;20533;-84
2023/07/29 01:28:33;;;;;;;34.03;23.03;;;16.30;99.90;;;;;;5658844;24;20259;-84
2023/07/29 01:54:00;;;;;;;43.70;25.00;;;15.90;99.90;;;;;;5746105;24;20941;-84
2023/07/29 02:24:10;;;;;;;41.87;23.17;;;15.50;99.90;;;;;;5886573;23;20336;-82
2023/07/29 02:49:09;;;;;;;39.13;23.23;;;15.20;99.90;;;;;;5759002;24;20349;-82
2023/07/29 04:05:28;;;;;;;47.13;26.60;;;15.90;99.90;;;;;;5579686;24;20524;-86
2023/07/29 04:36:19;;;;;;;34.03;22.70;;;16.30;99.90;;;;;;5840661;24;20240;-83
2023/07/29 04:55:59;;;;;;;26.63;20.43;;;16.60;99.90;;;;;;6070725;23;20822;-84
2023/07/29 05:16:24;;;;;;;19.53;17.10;;;17.10;99.90;;;;;;5731474;24;20483;-82
2023/07/29 05:42:11;;;;;;;17.87;15.97;;;18.10;99.90;;;;;;5802944;24;20227;-84
2023/07/29 06:42:38;;;;;;;18.77;16.10;;;19.90;99.90;;;;;;5746409;24;20505;-85
2023/07/29 07:08:13;;;;;;;15.05;13.68;;;21.10;99.90;;;;;;5761914;24;20692;-85
2023/07/29 07:38:29;;;;;;;13.93;12.63;;;21.90;99.90;;;;;;5781992;24;20199;-85
2023/07/29 08:08:42;;;;;;;11.27;10.20;;;22.50;95.80;;;;;;5805112;23;20198;-85
2023/07/29 09:40:41;;;;;;;4.50;4.00;;;23.90;78.60;;;;;;5552766;25;20307;-86
2023/07/29 10:21:15;;;;;;;3.25;3.03;;;23.80;76.50;;;;;;5686238;24;20970;-88
2023/07/29 10:45:58;;;;;;;2.90;2.70;;;24.10;73.40;;;;;;5874248;23;20627;-85
2023/07/29 11:21:57;;;;;;;2.83;2.63;;;24.70;64.30;;;;;;5797893;24;20522;-87
2023/07/29 11:42:05;;;;;;;3.20;3.00;;;24.70;67.30;;;;;;5806844;24;20582;-88
2023/07/29 12:07:44;;;;;;;3.20;3.00;;;25.10;68.30;;;;;;6072516;23;20179;-86
2023/07/29 12:38:01;;;;;;;2.95;2.75;;;26.00;62.40;;;;;;6064339;22;20149;-84
2023/07/29 13:13:49;;;;;;;2.83;2.60;;;27.40;58.20;;;;;;5937366;23;20201;-86
2023/07/29 13:54:19;;;;;;;3.10;2.80;;;28.50;58.50;;;;;;5792053;24;20222;-84
2023/07/29 14:49:27;;;;;;;2.80;2.50;;;28.00;58.40;;;;;;5785849;23;20517;-85
2023/07/29 15:51:03;;;;;;;2.83;2.60;;;26.60;59.70;;;;;;5694487;24;20187;-83
2023/07/29 15:55:23;;;;;;;2.78;2.58;;;26.50;60.30;;;;;;5670355;24;20796;-87
2023/07/29 16:36:35;;;;;;;3.13;2.83;;;26.00;75.60;;;;;;5830013;24;20550;-83
2023/07/29 16:57:00;;;;;;;3.40;3.08;;;25.60;80.50;;;;;;5658640;24;20171;-86
2023/07/29 17:32:27;;;;;;;3.90;3.60;;;24.70;89.50;;;;;;5639848;24;20276;-84
2023/07/29 17:57:51;;;;;;;4.30;3.72;;;23.20;99.90;;;;;;5868362;23;20329;-85
2023/07/29 18:17:48;;;;;;;5.55;4.03;;;22.70;99.90;;;;;;5824817;23;20650;-86
2023/07/29 18:43:30;;;;;;;7.80;7.00;;;22.50;99.90;;;;;;5790902;24;20208;-87
2023/07/29 19:08:43;;;;;;;5.35;4.85;;;22.50;99.90;;;;;;5848754;24;20378;-86
2023/07/29 19:28:50;;;;;;;5.70;4.68;;;22.70;99.90;;;;;;6079355;23;20583;-86
2023/07/29 19:54:03;;;;;;;6.10;5.50;;;22.10;99.90;;;;;;5947966;23;20221;-86
2023/07/29 20:03:49;;;;;;;6.47;5.90;;;21.90;99.90;;;;;;6211290;22;20232;31
2023/07/29 20:29:39;;;;;;;6.57;5.97;;;21.50;99.90;;;;;;5987118;23;20162;-85
2023/07/29 21:00:14;;;;;;;5.30;4.90;;;21.70;99.90;;;;;;5686492;24;20183;-83
2023/07/29 21:04:34;;;;;;;6.13;5.53;;;21.80;99.90;;;;;;5605632;24;20734;-87
2023/07/29 21:30:36;;;;;;;6.53;3.07;;;22.00;99.90;;;;;;5724548;24;20224;-86
2023/07/29 22:00:23;;;;;;;5.60;4.50;;;19.00;99.90;;;;;;5940576;23;21062;-86
2023/07/29 22:16:15;;;;;;;6.93;5.40;;;18.70;99.90;;;;;;5664495;24;20505;-87
2023/07/29 22:46:42;;;;;;;4.60;4.20;;;18.30;99.90;;;;;;5869297;23;20186;-84
2023/07/29 23:16:56;;;;;;;4.83;4.13;;;18.00;99.90;;;;;;5775729;24;21368;-85
